CheckWX is a tool to help pilots better visualize weather data.  It is not intended as a substitute for an official pre-flight weather briefing.

12:22:57 UTC

KABI METAR
Abilene Regional Airport
Abilene, Texas, USA
Current

31 mins ago

KABI 181152Z 02003KT 10SM CLR 01/M03 A3018 RMK AO2 SLP219 T00061028 10039 20000 51018
Observed
Feb-18 @ 11:52 UTC
Wind
  • 020° at 3 KTS
Visibility
10 SM
Flight Rules
VFR
Cloud Levels
  • Clear skies
Temperature
C / 34°F
Dewpoint
-3°C / 27°F
Humidity
75%
Altimeter
30.18" Hg
Pressure
1021.9 hPa
Previous

2 hours ago

KABI 181052Z 06006KT 10SM CLR 02/M03 A3016 RMK AO2 SLP213 T00171028
Observed
Feb-18 @ 10:52 UTC
Wind
  • 060° at 6 KTS
Visibility
10 SM
Flight Rules
VFR
Cloud Levels
  • Clear skies
Temperature
C / 36°F
Dewpoint
-3°C / 27°F
Humidity
70%
Altimeter
30.16" Hg
Pressure
1021.3 hPa
Previous

3 hours ago

KABI 180952Z 15004KT 10SM CLR 02/M03 A3015 RMK AO2 SLP207 T00171028
Observed
Feb-18 @ 09:52 UTC
Wind
  • 150° at 4 KTS
Visibility
10 SM
Flight Rules
VFR
Cloud Levels
  • Clear skies
Temperature
C / 36°F
Dewpoint
-3°C / 27°F
Humidity
70%
Altimeter
30.15" Hg
Pressure
1020.7 hPa